createdAt,value
2023-05-06T00:02:03.661Z,9.55
2023-05-06T00:04:29.992Z,8.45
2023-05-06T00:06:56.347Z,10.98
2023-05-06T00:09:25.371Z,8.48
2023-05-06T00:11:51.775Z,12.38
2023-05-06T00:14:18.176Z,8.93
2023-05-06T00:16:44.516Z,10.85
2023-05-06T00:19:10.881Z,8.57
2023-05-06T00:21:37.637Z,8.05
2023-05-06T00:24:04.116Z,8.43
2023-05-06T00:26:30.742Z,8.65
2023-05-06T00:28:57.233Z,10.07
2023-05-06T00:31:23.823Z,8.32
2023-05-06T00:33:50.286Z,9.68
2023-05-06T00:36:16.634Z,8.80
2023-05-06T00:38:42.929Z,9.07
2023-05-06T00:41:09.399Z,8.35
2023-05-06T00:43:36.038Z,11.25
2023-05-06T00:46:02.657Z,7.35
2023-05-06T00:48:29.055Z,9.00
2023-05-06T00:50:55.388Z,8.07
2023-05-06T00:53:22.130Z,8.02
2023-05-06T00:55:48.593Z,8.68
2023-05-06T00:58:14.929Z,7.53
2023-05-06T01:00:41.337Z,10.30
2023-05-06T01:03:08.564Z,8.52
2023-05-06T01:05:35.523Z,7.97
2023-05-06T01:08:03.046Z,8.52
2023-05-06T01:10:29.681Z,7.78
2023-05-06T01:12:56.209Z,8.30
2023-05-06T01:15:22.544Z,9.75
2023-05-06T01:17:50.672Z,11.38
2023-05-06T01:20:18.422Z,7.63
2023-05-06T01:22:44.872Z,8.25
2023-05-06T01:25:20.851Z,9.38
2023-05-06T01:27:47.551Z,8.55
2023-05-06T01:30:14.731Z,7.88
2023-05-06T01:32:41.209Z,7.43
2023-05-06T01:35:07.722Z,8.82
2023-05-06T01:37:34.472Z,7.70
2023-05-06T01:40:01.246Z,8.60
2023-05-06T01:42:27.645Z,8.20
2023-05-06T01:44:54.350Z,9.50
2023-05-06T01:47:23.876Z,7.73
2023-05-06T01:49:50.740Z,7.53
2023-05-06T01:52:17.368Z,8.68
2023-05-06T01:54:43.866Z,8.25
2023-05-06T01:57:10.352Z,8.05
2023-05-06T01:59:36.744Z,7.78
2023-05-06T02:02:03.180Z,8.15
2023-05-06T02:04:29.985Z,9.40
2023-05-06T02:06:56.496Z,8.32
2023-05-06T02:09:22.917Z,8.95
2023-05-06T02:11:49.300Z,8.15
2023-05-06T02:14:15.822Z,7.88
2023-05-06T02:16:42.286Z,7.47
2023-05-06T02:19:10.030Z,8.07
2023-05-06T02:21:36.674Z,7.75
2023-05-06T02:24:03.118Z,9.05
2023-05-06T02:26:29.449Z,10.50
2023-05-06T02:28:56.155Z,8.95
2023-05-06T02:31:22.628Z,7.75
2023-05-06T02:33:49.189Z,8.52
2023-05-06T02:36:15.608Z,7.30
2023-05-06T02:38:44.962Z,8.00
2023-05-06T02:41:11.322Z,8.02
2023-05-06T02:43:39.486Z,7.63
2023-05-06T02:46:06.020Z,9.05
2023-05-06T02:48:36.117Z,8.05
2023-05-06T02:51:02.907Z,8.07
2023-05-06T02:53:29.748Z,10.57
2023-05-06T02:55:56.123Z,6.72
2023-05-06T02:58:22.677Z,7.88
2023-05-06T03:00:49.104Z,7.22
2023-05-06T03:03:15.546Z,8.85
2023-05-06T03:05:42.156Z,7.50
2023-05-06T03:08:08.477Z,7.47
2023-05-06T03:10:35.588Z,9.07
2023-05-06T03:13:02.330Z,8.57
2023-05-06T03:15:28.820Z,8.18
2023-05-06T03:17:55.479Z,8.38
2023-05-06T03:20:22.011Z,9.98
2023-05-06T03:22:48.456Z,7.88
2023-05-06T03:25:15.072Z,10.38
2023-05-06T03:27:41.545Z,7.32
2023-05-06T03:30:08.272Z,8.60
2023-05-06T03:32:34.683Z,6.97
2023-05-06T03:35:01.150Z,8.50
2023-05-06T03:37:27.559Z,7.38
2023-05-06T03:39:54.489Z,9.07
2023-05-06T03:42:21.166Z,6.90
2023-05-06T03:44:47.532Z,7.65
2023-05-06T03:47:14.054Z,8.05
2023-05-06T03:49:40.349Z,7.70
2023-05-06T03:52:06.994Z,7.72
2023-05-06T03:54:33.762Z,8.65
2023-05-06T03:57:00.367Z,8.82
2023-05-06T03:59:26.737Z,8.90
2023-05-06T04:01:53.167Z,7.80
2023-05-06T04:04:19.639Z,8.55
2023-05-06T04:06:46.184Z,8.07
2023-05-06T04:09:12.574Z,7.60
2023-05-06T04:11:39.281Z,7.72
2023-05-06T04:14:05.851Z,8.27
2023-05-06T04:16:32.240Z,9.70
2023-05-06T04:18:58.764Z,8.63
2023-05-06T04:21:25.313Z,7.45
2023-05-06T04:23:51.734Z,8.40
2023-05-06T04:26:18.322Z,9.07
2023-05-06T04:28:45.109Z,8.68
2023-05-06T04:31:11.559Z,7.25
2023-05-06T04:33:37.951Z,6.53
2023-05-06T04:36:04.338Z,9.07
2023-05-06T04:38:30.737Z,8.48
2023-05-06T04:40:57.147Z,7.13
2023-05-06T04:43:23.805Z,8.38
2023-05-06T04:45:50.503Z,7.95
2023-05-06T04:48:17.004Z,7.82
2023-05-06T04:50:43.698Z,7.18
2023-05-06T04:53:10.125Z,7.57
2023-05-06T04:55:36.693Z,8.90
2023-05-06T04:58:04.331Z,8.32
2023-05-06T05:00:30.669Z,7.72
2023-05-06T05:02:57.640Z,9.73
2023-05-06T05:05:24.375Z,8.30
2023-05-06T05:07:50.880Z,8.65
2023-05-06T05:10:17.422Z,8.52
2023-05-06T05:12:44.357Z,7.25
2023-05-06T05:15:11.211Z,8.65
2023-05-06T05:17:38.051Z,8.52
2023-05-06T05:20:04.572Z,9.30
2023-05-06T05:22:31.000Z,7.35
2023-05-06T05:24:57.433Z,7.95
2023-05-06T05:27:26.970Z,7.30
2023-05-06T05:29:53.358Z,8.60
2023-05-06T05:32:19.765Z,7.70
2023-05-06T05:34:46.807Z,10.40
2023-05-06T05:37:13.571Z,9.02
2023-05-06T05:39:39.962Z,7.80
2023-05-06T05:42:06.542Z,8.73
2023-05-06T05:44:33.033Z,8.05
2023-05-06T05:46:59.484Z,8.48
2023-05-06T05:49:25.833Z,7.70
2023-05-06T05:51:52.233Z,7.90
2023-05-06T05:54:18.729Z,9.02
2023-05-06T05:56:48.352Z,8.43
2023-05-06T05:59:14.726Z,8.30
2023-05-06T06:01:41.181Z,7.63
2023-05-06T06:04:07.961Z,8.57
2023-05-06T06:06:34.624Z,8.82
2023-05-06T06:09:01.074Z,9.70
2023-05-06T06:11:27.498Z,9.02
2023-05-06T06:13:53.892Z,8.43
2023-05-06T06:16:20.436Z,9.57
2023-05-06T06:18:47.094Z,7.32
2023-05-06T06:21:13.609Z,9.95
2023-05-06T06:23:40.391Z,7.95
2023-05-06T06:26:07.111Z,10.20
2023-05-06T06:28:33.567Z,9.10
2023-05-06T06:30:59.935Z,7.57
2023-05-06T06:33:26.454Z,10.65
2023-05-06T06:35:53.121Z,10.10
2023-05-06T06:38:19.753Z,7.65
2023-05-06T06:40:46.721Z,9.02
2023-05-06T06:43:13.050Z,9.00
2023-05-06T06:45:39.804Z,8.63
2023-05-06T06:48:06.211Z,8.70
2023-05-06T06:50:33.119Z,9.13
2023-05-06T06:52:59.936Z,9.50
2023-05-06T06:55:26.262Z,8.45
2023-05-06T06:57:52.761Z,8.02
2023-05-06T07:00:19.200Z,8.88
2023-05-06T07:02:45.624Z,8.95
2023-05-06T07:05:12.404Z,8.55
2023-05-06T07:07:39.742Z,8.23
2023-05-06T07:10:06.479Z,8.13
2023-05-06T07:12:33.186Z,8.35
2023-05-06T07:14:59.650Z,9.32
2023-05-06T07:17:26.692Z,7.70
2023-05-06T07:19:53.273Z,7.70
2023-05-06T07:22:19.694Z,7.70
2023-05-06T07:24:48.385Z,7.22
2023-05-06T07:27:14.763Z,7.43
2023-05-06T07:29:41.799Z,7.85
2023-05-06T07:32:08.483Z,7.03
2023-05-06T07:34:35.327Z,8.10
2023-05-06T07:37:01.654Z,7.68
2023-05-06T07:39:28.235Z,7.97
2023-05-06T07:41:54.688Z,7.78
2023-05-06T07:44:22.038Z,7.60
2023-05-06T07:46:48.951Z,7.28
2023-05-06T07:49:15.396Z,7.22
2023-05-06T07:51:42.034Z,8.88
2023-05-06T07:54:08.491Z,8.02
2023-05-06T07:56:35.176Z,7.30
2023-05-06T07:59:01.527Z,7.97
2023-05-06T08:01:27.915Z,8.75
2023-05-06T08:03:54.866Z,8.20
2023-05-06T08:06:21.307Z,8.52
2023-05-06T08:08:47.679Z,7.38
2023-05-06T08:11:14.228Z,7.90
2023-05-06T08:13:43.667Z,8.13
2023-05-06T08:16:10.057Z,7.70
2023-05-06T08:18:36.888Z,8.55
2023-05-06T08:21:03.334Z,7.72
2023-05-06T08:23:29.903Z,7.75
2023-05-06T08:25:56.281Z,6.63
2023-05-06T08:28:24.594Z,7.25
2023-05-06T08:30:51.565Z,7.22
2023-05-06T08:33:17.956Z,7.25
2023-05-06T08:35:44.338Z,8.13
2023-05-06T08:38:10.997Z,8.35
2023-05-06T08:40:42.449Z,7.47
2023-05-06T08:43:08.839Z,6.50
2023-05-06T08:45:35.228Z,7.88
2023-05-06T08:48:01.867Z,7.28
2023-05-06T08:50:28.284Z,8.25
2023-05-06T08:52:54.653Z,6.50
2023-05-06T08:55:21.143Z,7.25
2023-05-06T08:57:47.739Z,7.28
2023-05-06T09:00:14.195Z,9.13
2023-05-06T09:02:43.058Z,7.90
2023-05-06T09:05:10.218Z,11.93
2023-05-06T09:07:40.712Z,7.57
2023-05-06T09:10:07.054Z,10.05
2023-05-06T09:12:34.761Z,6.80
2023-05-06T09:15:01.556Z,10.10
2023-05-06T09:17:28.609Z,11.05
2023-05-06T09:19:55.355Z,12.07
2023-05-06T09:22:22.061Z,7.30
2023-05-06T09:24:48.475Z,7.25
2023-05-06T09:27:15.300Z,7.45
2023-05-06T09:29:41.655Z,7.97
2023-05-06T09:32:08.107Z,7.60
2023-05-06T09:34:34.473Z,7.60
2023-05-06T09:37:02.848Z,8.90
2023-05-06T09:39:29.250Z,7.65
2023-05-06T09:41:55.630Z,7.32
2023-05-06T09:44:24.049Z,9.25
2023-05-06T09:46:50.450Z,6.85
2023-05-06T09:49:16.820Z,8.63
2023-05-06T09:51:43.451Z,7.25
2023-05-06T09:54:10.754Z,9.23
2023-05-06T09:56:37.197Z,7.82
2023-05-06T09:59:03.709Z,8.02
2023-05-06T10:01:36.871Z,6.65
2023-05-06T10:04:04.246Z,7.70
2023-05-06T10:06:30.914Z,6.38
2023-05-06T10:08:57.398Z,6.88
2023-05-06T10:11:23.796Z,6.15
2023-05-06T10:13:50.236Z,7.32
2023-05-06T10:16:16.609Z,5.95
2023-05-06T10:18:43.404Z,7.82
2023-05-06T10:21:09.935Z,6.75
2023-05-06T10:23:36.368Z,6.25
2023-05-06T10:26:02.739Z,7.38
2023-05-06T10:28:31.549Z,6.05
2023-05-06T10:30:58.432Z,6.43
2023-05-06T10:33:25.506Z,7.68
2023-05-06T10:35:53.722Z,7.15
2023-05-06T10:38:20.431Z,7.00
2023-05-06T10:40:46.961Z,7.43
2023-05-06T10:43:13.291Z,7.68
2023-05-06T10:45:40.015Z,6.60
2023-05-06T10:48:06.625Z,6.75
2023-05-06T10:50:33.860Z,6.97
2023-05-06T10:53:00.425Z,6.05
2023-05-06T10:55:26.825Z,7.00
2023-05-06T10:57:53.212Z,7.28
2023-05-06T11:00:19.720Z,6.88
2023-05-06T11:02:47.563Z,5.45
2023-05-06T11:05:14.107Z,6.22
2023-05-06T11:07:40.407Z,7.05
2023-05-06T11:10:06.848Z,6.60
2023-05-06T11:12:37.414Z,6.60
2023-05-06T11:15:03.787Z,6.60
2023-05-06T11:17:30.372Z,5.88
2023-05-06T11:19:57.109Z,6.38
2023-05-06T11:22:23.559Z,6.22
2023-05-06T11:24:50.110Z,7.47
2023-05-06T11:27:16.917Z,6.82
2023-05-06T11:29:43.496Z,5.60
2023-05-06T11:32:09.990Z,5.72
2023-05-06T11:34:36.592Z,6.45
2023-05-06T11:37:09.567Z,8.40
2023-05-06T11:39:40.489Z,6.47
2023-05-06T11:42:07.976Z,5.57
2023-05-06T11:44:34.393Z,5.82
2023-05-06T11:47:00.918Z,5.80
2023-05-06T11:49:27.663Z,5.88
2023-05-06T11:51:54.481Z,6.45
2023-05-06T11:54:20.837Z,6.32
2023-05-06T11:56:47.450Z,5.97
2023-05-06T11:59:13.929Z,5.72
2023-05-06T12:01:41.045Z,5.65
2023-05-06T12:04:07.986Z,5.90
2023-05-06T12:06:34.631Z,5.53
2023-05-06T12:09:00.994Z,5.95
2023-05-06T12:11:27.314Z,5.68
2023-05-06T12:13:53.861Z,6.95
2023-05-06T12:16:20.432Z,5.50
2023-05-06T12:18:46.962Z,4.60
2023-05-06T12:21:13.972Z,5.78
2023-05-06T12:23:40.307Z,6.68
2023-05-06T12:26:07.294Z,5.90
2023-05-06T12:28:33.644Z,5.65
2023-05-06T12:31:00.395Z,7.38
2023-05-06T12:33:28.305Z,6.78
2023-05-06T12:35:54.700Z,7.28
2023-05-06T12:38:21.811Z,6.50
2023-05-06T12:40:48.344Z,6.38
2023-05-06T12:43:14.826Z,6.70
2023-05-06T12:45:41.454Z,6.78
2023-05-06T12:48:08.106Z,6.05
2023-05-06T12:50:34.721Z,6.03
2023-05-06T12:53:01.273Z,6.85
2023-05-06T12:55:27.766Z,7.32
2023-05-06T12:57:55.210Z,5.72
2023-05-06T13:00:23.252Z,5.30
2023-05-06T13:02:50.020Z,4.85
2023-05-06T13:05:16.710Z,6.30
2023-05-06T13:07:43.154Z,6.60
2023-05-06T13:10:10.393Z,5.78
2023-05-06T13:12:37.100Z,6.13
2023-05-06T13:15:03.568Z,6.22
2023-05-06T13:17:30.051Z,4.97
2023-05-06T13:19:56.634Z,5.95
2023-05-06T13:22:25.650Z,5.28
2023-05-06T13:24:52.161Z,5.75
2023-05-06T13:27:18.510Z,5.63
2023-05-06T13:29:44.840Z,5.43
2023-05-06T13:32:11.523Z,6.05
2023-05-06T13:34:38.190Z,6.05
2023-05-06T13:37:04.476Z,6.93
2023-05-06T13:39:31.111Z,5.28
2023-05-06T13:41:57.456Z,5.45
2023-05-06T13:44:23.862Z,6.50
2023-05-06T13:46:50.485Z,5.80
2023-05-06T13:49:17.390Z,5.72
2023-05-06T13:51:43.888Z,6.30
2023-05-06T13:54:10.800Z,6.38
2023-05-06T13:56:37.497Z,5.20
2023-05-06T13:59:04.203Z,5.32
2023-05-06T14:01:30.737Z,5.40
2023-05-06T14:03:57.420Z,4.70
2023-05-06T14:06:23.766Z,5.47
2023-05-06T14:08:50.396Z,5.18
2023-05-06T14:11:17.007Z,5.22
2023-05-06T14:13:43.532Z,4.70
2023-05-06T14:16:09.881Z,5.03
2023-05-06T14:18:36.411Z,4.60
2023-05-06T14:21:02.735Z,5.53
2023-05-06T14:23:30.537Z,5.15
2023-05-06T14:25:57.120Z,5.70
2023-05-06T14:28:23.390Z,4.53
2023-05-06T14:30:49.872Z,5.22
2023-05-06T14:33:16.446Z,5.32
2023-05-06T14:35:42.977Z,4.82
2023-05-06T14:38:09.551Z,5.18
2023-05-06T14:40:36.095Z,5.32
2023-05-06T14:43:02.485Z,5.35
2023-05-06T14:45:28.836Z,5.30
2023-05-06T14:47:55.455Z,5.05
2023-05-06T14:50:22.130Z,5.10
2023-05-06T14:52:48.647Z,5.45
2023-05-06T14:55:15.687Z,5.20
2023-05-06T14:57:42.112Z,5.15
2023-05-06T15:00:08.872Z,4.68
2023-05-06T15:02:35.338Z,4.75
2023-05-06T15:05:03.888Z,5.72
2023-05-06T15:07:30.466Z,5.60
2023-05-06T15:09:56.824Z,8.32
2023-05-06T15:12:23.181Z,4.88
2023-05-06T15:14:50.507Z,6.97
2023-05-06T15:17:16.911Z,5.32
2023-05-06T15:19:43.723Z,4.82
2023-05-06T15:22:10.732Z,5.25
2023-05-06T15:24:37.138Z,5.40
2023-05-06T15:27:03.590Z,5.32
2023-05-06T15:29:29.898Z,5.50
2023-05-06T15:31:56.476Z,5.70
2023-05-06T15:34:23.030Z,4.38
2023-05-06T15:36:49.687Z,5.00
2023-05-06T15:39:16.100Z,4.70
2023-05-06T15:41:45.030Z,4.68
2023-05-06T15:44:11.453Z,4.85
2023-05-06T15:46:38.015Z,5.28
2023-05-06T15:51:34.520Z,5.78
2023-05-06T15:54:01.473Z,5.00
2023-05-06T15:56:28.100Z,5.82
2023-05-06T15:58:55.020Z,5.53
2023-05-06T16:01:31.539Z,5.07
2023-05-06T16:04:08.531Z,5.60
2023-05-06T16:06:35.323Z,5.15
2023-05-06T16:09:02.000Z,5.07
2023-05-06T16:11:28.414Z,5.65
2023-05-06T16:13:54.864Z,7.50
2023-05-06T16:16:21.667Z,6.03
2023-05-06T16:18:48.289Z,5.47
2023-05-06T16:21:15.009Z,5.75
2023-05-06T16:23:41.320Z,5.60
2023-05-06T16:26:07.620Z,5.55
2023-05-06T16:28:34.042Z,5.47
2023-05-06T16:31:01.121Z,5.47
2023-05-06T16:33:27.500Z,5.15
2023-05-06T16:35:53.911Z,4.68
2023-05-06T16:38:20.313Z,5.63
2023-05-06T16:40:46.699Z,5.90
2023-05-06T16:43:13.125Z,5.03
2023-05-06T16:45:41.510Z,6.25
2023-05-06T16:48:08.074Z,6.22
2023-05-06T16:50:35.060Z,5.63
2023-05-06T16:53:01.373Z,6.00
2023-05-06T16:55:27.810Z,6.65
2023-05-06T16:57:54.277Z,6.07
2023-05-06T17:00:20.895Z,5.93
2023-05-06T17:02:47.277Z,5.50
2023-05-06T17:05:13.709Z,6.35
2023-05-06T17:07:40.313Z,5.85
2023-05-06T17:10:06.662Z,5.72
2023-05-06T17:12:33.103Z,6.28
2023-05-06T17:14:59.551Z,4.85
2023-05-06T17:17:25.975Z,6.05
2023-05-06T17:19:52.711Z,7.55
2023-05-06T17:22:19.146Z,5.53
2023-05-06T17:24:49.079Z,5.97
2023-05-06T17:27:15.751Z,7.13
2023-05-06T17:29:42.210Z,6.07
2023-05-06T17:32:08.966Z,5.78
2023-05-06T17:34:35.649Z,5.93
2023-05-06T17:37:02.061Z,6.03
2023-05-06T17:39:28.806Z,5.47
2023-05-06T17:41:55.390Z,5.85
2023-05-06T17:44:21.815Z,5.85
2023-05-06T17:46:48.545Z,5.53
2023-05-06T17:49:15.672Z,6.05
2023-05-06T17:51:42.522Z,7.35
2023-05-06T17:54:08.965Z,5.60
2023-05-06T17:56:35.234Z,5.40
2023-05-06T17:59:02.055Z,7.22
2023-05-06T18:01:28.484Z,6.15
2023-05-06T18:03:55.044Z,5.65
2023-05-06T18:06:21.509Z,6.32
2023-05-06T18:08:47.898Z,6.45
2023-05-06T18:11:14.568Z,7.05
2023-05-06T18:13:40.919Z,5.68
2023-05-06T18:16:07.776Z,5.75
2023-05-06T18:18:34.345Z,5.60
2023-05-06T18:21:01.046Z,5.95
2023-05-06T18:23:27.404Z,6.38
2023-05-06T18:25:53.868Z,5.85
2023-05-06T18:28:20.737Z,5.97
2023-05-06T18:30:47.427Z,7.80
2023-05-06T18:33:13.909Z,5.03
2023-05-06T18:35:40.581Z,5.65
2023-05-06T18:38:06.904Z,6.50
2023-05-06T18:40:33.331Z,6.03
2023-05-06T18:43:00.149Z,5.53
2023-05-06T18:45:26.564Z,6.38
2023-05-06T18:47:53.305Z,7.47
2023-05-06T18:50:19.905Z,5.82
2023-05-06T18:52:46.566Z,5.70
2023-05-06T18:55:13.162Z,5.63
2023-05-06T18:57:39.826Z,6.65
2023-05-06T19:00:06.437Z,6.95
2023-05-06T19:02:33.223Z,6.38
2023-05-06T19:05:03.719Z,6.20
2023-05-06T19:07:30.117Z,6.80
2023-05-06T19:09:56.766Z,6.07
2023-05-06T19:12:23.324Z,5.20
2023-05-06T19:14:49.671Z,6.68
2023-05-06T19:17:16.316Z,6.05
2023-05-06T19:19:42.836Z,6.25
2023-05-06T19:22:09.218Z,6.53
2023-05-06T19:24:35.668Z,6.57
2023-05-06T19:27:02.193Z,6.50
2023-05-06T19:29:28.514Z,5.88
2023-05-06T19:31:54.874Z,7.57
2023-05-06T19:34:21.246Z,6.43
2023-05-06T19:36:47.680Z,5.90
2023-05-06T19:39:14.174Z,7.32
2023-05-06T19:41:40.673Z,5.90
2023-05-06T19:44:07.194Z,6.60
2023-05-06T19:46:33.542Z,6.00
2023-05-06T19:48:59.969Z,5.97
2023-05-06T19:51:26.507Z,6.57
2023-05-06T19:53:53.058Z,7.85
2023-05-06T19:56:19.626Z,6.53
2023-05-06T19:58:46.029Z,7.43
2023-05-06T20:01:13.071Z,7.07
2023-05-06T20:03:39.578Z,8.27
2023-05-06T20:06:06.211Z,6.85
2023-05-06T20:08:32.786Z,6.85
2023-05-06T20:11:01.200Z,7.68
2023-05-06T20:13:28.099Z,6.95
2023-05-06T20:15:54.979Z,6.85
2023-05-06T20:18:21.781Z,6.93
2023-05-06T20:20:48.323Z,7.70
2023-05-06T20:23:14.730Z,7.97
2023-05-06T20:25:41.088Z,7.03
2023-05-06T20:28:07.428Z,7.20
2023-05-06T20:30:33.911Z,6.65
2023-05-06T20:33:00.971Z,7.40
2023-05-06T20:35:27.479Z,7.35
2023-05-06T20:37:53.876Z,6.63
2023-05-06T20:40:20.466Z,7.30
2023-05-06T20:42:47.115Z,7.60
2023-05-06T20:45:13.618Z,7.15
2023-05-06T20:47:40.138Z,7.35
2023-05-06T20:50:06.653Z,7.35
2023-05-06T20:52:33.441Z,7.40
2023-05-06T20:54:59.839Z,7.72
2023-05-06T20:57:26.236Z,8.57
2023-05-06T20:59:52.777Z,7.00
2023-05-06T21:02:19.588Z,6.88
2023-05-06T21:04:46.338Z,7.97
2023-05-06T21:07:12.813Z,7.18
2023-05-06T21:09:39.285Z,8.15
2023-05-06T21:12:08.305Z,8.40
2023-05-06T21:14:34.712Z,7.45
2023-05-06T21:17:01.317Z,8.93
2023-05-06T21:19:28.399Z,6.93
2023-05-06T21:21:54.794Z,7.30
2023-05-06T21:24:21.165Z,8.40
2023-05-06T21:26:47.584Z,9.57
2023-05-06T21:29:13.923Z,7.32
2023-05-06T21:31:50.146Z,7.32
2023-05-06T21:34:19.513Z,8.45
2023-05-06T21:36:45.818Z,8.88
2023-05-06T21:39:12.516Z,8.65
2023-05-06T21:41:39.496Z,9.00
2023-05-06T21:44:06.033Z,8.35
2023-05-06T21:46:32.725Z,8.55
2023-05-06T21:48:59.386Z,8.30
2023-05-06T21:51:25.861Z,8.98
2023-05-06T21:53:52.207Z,8.15
2023-05-06T21:56:20.538Z,7.80
2023-05-06T21:58:46.932Z,8.55
2023-05-06T22:01:13.381Z,9.70
2023-05-06T22:03:42.341Z,8.18
2023-05-06T22:06:08.900Z,9.23
2023-05-06T22:08:35.329Z,9.40
2023-05-06T22:11:06.628Z,8.85
2023-05-06T22:13:34.579Z,9.02
2023-05-06T22:16:02.882Z,9.50
2023-05-06T22:18:29.904Z,8.85
2023-05-06T22:20:56.396Z,7.95
2023-05-06T22:23:22.796Z,8.38
2023-05-06T22:25:49.475Z,8.55
2023-05-06T22:28:16.026Z,8.30
2023-05-06T22:30:42.785Z,8.80
2023-05-06T22:33:13.850Z,9.40
2023-05-06T22:35:40.318Z,9.02
2023-05-06T22:38:06.828Z,9.45
2023-05-06T22:40:33.197Z,8.48
2023-05-06T22:42:59.609Z,8.63
2023-05-06T22:45:26.224Z,8.25
2023-05-06T22:47:52.592Z,8.48
2023-05-06T22:50:19.381Z,9.10
2023-05-06T22:52:45.732Z,9.10
2023-05-06T22:55:12.663Z,9.27
2023-05-06T22:57:39.424Z,9.05
2023-05-06T23:00:06.032Z,8.52
2023-05-06T23:02:32.507Z,8.40
2023-05-06T23:04:59.175Z,8.68
2023-05-06T23:07:25.554Z,10.07
2023-05-06T23:09:52.193Z,9.05
2023-05-06T23:12:18.874Z,9.55
2023-05-06T23:14:45.305Z,9.95
2023-05-06T23:17:11.974Z,10.18
2023-05-06T23:19:38.882Z,9.48
2023-05-06T23:22:05.319Z,8.88
2023-05-06T23:24:36.354Z,8.77
2023-05-06T23:27:02.687Z,9.45
2023-05-06T23:29:29.125Z,8.65
2023-05-06T23:31:55.570Z,8.77
2023-05-06T23:34:22.014Z,9.05
2023-05-06T23:36:48.381Z,9.00
2023-05-06T23:39:14.733Z,8.77
2023-05-06T23:41:41.095Z,8.15
2023-05-06T23:44:07.448Z,9.40
2023-05-06T23:46:34.029Z,9.05
2023-05-06T23:49:00.662Z,9.48
2023-05-06T23:51:27.051Z,9.25
2023-05-06T23:53:53.378Z,9.07
2023-05-06T23:56:25.074Z,9.43
2023-05-06T23:58:51.566Z,8.48
